Majesty of the Seas — C6FZ8 — position and weather

sailwx.info

Track history (hours):
 
Tides and Currents Weather Stations Pressure Air Temp Water Temp Dewpoint Dewpoint Depression Visibility Wind Speed Wind Dir Waves Ship Positions

Majesty of the Seas (Bahamas)

Last reported at 2020-Jul-02 14:24 UTC. Time now 2020-Jul-02 15:18 UTC.
Position N 50°54' W 001°25'.

Length 268 m; draft 7.8 m.

Type: Ship. MMSI: 311734000.

Date/timePositionNaut miles runAvg speedWind from/ knotsBaromVisibWave heightAir tempDewpointWater temp
2020-Jul-02 14:24N 50°54' W 001°25'0 0.0
2020-Jul-02 11:30N 50°54' W 001°25'0 0.0
2020-Jul-02 10:57N 50°54' W 001°25'0 0.0
2020-Jul-02 10:30N 50°54' W 001°25'0 0.0
2020-Jul-02 09:27N 50°54' W 001°25'0 0.0
2020-Jul-02 09:00N 50°54' W 001°25'0 0.0
2020-Jul-02 06:30N 50°54' W 001°25'0 0.0
2020-Jul-02 04:00N 50°54' W 001°25'0 0.0
2020-Jul-02 03:30N 50°54' W 001°25'0 0.0
2020-Jul-02 02:30N 50°54' W 001°25'0 0.0
2020-Jul-02 01:30N 50°54' W 001°25'0 0.0
2020-Jul-01 23:30N 50°54' W 001°25'0 0.0
2020-Jul-01 18:27N 50°54' W 001°25'0 0.0
2020-Jul-01 16:00N 50°54' W 001°25'0 0.0
2020-Jul-01 13:30N 50°54' W 001°25'0 0.0
2020-Jul-01 05:30N 50°54' W 001°25'7 4.8
2020-Jul-01 04:01N 50°49' W 001°17'1610.5
2020-Jul-01 02:30N 50°38' W 000°59'916.9
2020-Jul-01 02:00N 50°30' W 000°54'31 4.1 250 / 181006.710.8 15.514.618.4
2020-Jun-30 18:30N 50°29' W 001°42'1 1.9
2020-Jun-30 18:00N 50°28' W 001°43'1 2.0
2020-Jun-30 17:30N 50°28' W 001°43'3 2.7
2020-Jun-30 16:29N 50°26' W 001°46'10 1.9
2020-Jun-30 11:00N 50°24' W 001°30'7 0.9 250 / 251008.9 5.4 16.014.318.5
2020-Jun-30 03:22N 50°29' W 001°37'3 2.8
2020-Jun-30 02:20N 50°28' W 001°41'514.2
2020-Jun-30 02:00N 50°24' W 001°36'6 3.9 230 / 201010.227.0 15.015.017.8
2020-Jun-30 00:24N 50°24' W 001°46'1 1.1
2020-Jun-29 23:00N 50°24' W 001°48'4 2.1 260 / 251012.310.8 15.015.018.0
2020-Jun-29 21:02N 50°28' W 001°50'3 0.6
2020-Jun-29 16:18N 50°25' W 001°53'8 1.5
2020-Jun-29 11:00N 50°30' W 001°42'65 7.2 250 / 331013.3 5.4 14.0 8.017.3
2020-Jun-29 02:00N 50°30' E 000°00'1810.0 260 / 341012.710.8 13.011.116.7
2020-Jun-29 00:09N 50°37' E 000°27'911.0
2020-Jun-28 23:20N 50°40' E 000°40'515.7
2020-Jun-28 23:00N 50°42' E 000°48'5 9.9 260 / 271012.810.8 14.012.217.0
2020-Jun-28 22:30N 50°46' E 000°52'611.7
2020-Jun-28 22:00N 50°49' E 000°60'611.2
2020-Jun-28 21:30N 50°53' E 001°07'16 5.2
2020-Jun-28 18:25N 51°07' E 001°19'0 0.0
2020-Jun-28 14:25N 51°07' E 001°19'0 0.0
2020-Jun-28 13:22N 51°07' E 001°19'0 0.0
2020-Jun-28 11:55N 51°07' E 001°19'0 0.0
2020-Jun-28 07:25N 51°07' E 001°19'0 0.0
2020-Jun-28 04:58N 51°07' E 001°19'0 0.0
2020-Jun-28 02:28N 51°07' E 001°19'0 0.0
2020-Jun-28 01:25N 51°07' E 001°19'0 0.0
2020-Jun-27 22:46N 51°07' E 001°19'0 0.0
2020-Jun-27 22:28N 51°07' E 001°19'0 0.0
2020-Jun-27 19:28N 51°07' E 001°19'0 0.0
2020-Jun-27 18:55N 51°07' E 001°19'0 0.0
2020-Jun-27 16:28N 51°07' E 001°19'0 0.0
2020-Jun-27 13:55N 51°07' E 001°19'0 0.0
2020-Jun-27 13:28N 51°07' E 001°19'0 0.0
2020-Jun-27 09:28N 51°07' E 001°19'0 0.0
2020-Jun-27 07:58N 51°07' E 001°19'0 0.0
2020-Jun-27 07:25N 51°07' E 001°19'0 0.0
2020-Jun-27 05:58N 51°07' E 001°19'0 0.0
2020-Jun-27 02:25N 51°07' E 001°19'0 0.0
2020-Jun-27 01:55N 51°07' E 001°19'0 0.0
2020-Jun-27 00:52N 51°07' E 001°19'0 0.0
2020-Jun-26 22:55N 51°07' E 001°19'0 0.0
2020-Jun-26 20:54N 51°07' E 001°19'0 0.0
2020-Jun-26 20:27N 51°07' E 001°19'0 0.0
2020-Jun-26 19:00N 51°07' E 001°19'0 0.0
2020-Jun-26 17:25N 51°07' E 001°19'0 0.0
2020-Jun-26 15:54N 51°07' E 001°19'0 0.0
2020-Jun-26 13:58N 51°07' E 001°19'0 0.0
2020-Jun-26 12:58N 51°07' E 001°19'0 0.0
2020-Jun-26 12:28N 51°07' E 001°19'0 0.0
2020-Jun-26 11:58N 51°07' E 001°19'0 0.0
2020-Jun-26 11:28N 51°07' E 001°19'0 0.0
2020-Jun-26 10:58N 51°07' E 001°19'0 0.0
2020-Jun-26 07:55N 51°07' E 001°19'0 0.0
2020-Jun-26 07:25N 51°07' E 001°19'0 0.0
2020-Jun-26 06:55N 51°07' E 001°19'0 0.0
2020-Jun-26 05:58N 51°07' E 001°19'0 0.0
2020-Jun-26 05:25N 51°07' E 001°19'0 0.0
2020-Jun-26 02:28N 51°07' E 001°19'0 0.0
2020-Jun-26 00:28N 51°07' E 001°19'0 0.0
2020-Jun-25 19:55N 51°07' E 001°19'0 0.0
2020-Jun-25 18:58N 51°07' E 001°19'0 0.0
2020-Jun-25 17:58N 51°07' E 001°19'0 0.0
2020-Jun-25 16:25N 51°07' E 001°19'0 0.0
2020-Jun-25 14:30N 51°07' E 001°19'0 0.0
2020-Jun-25 13:00N 51°07' E 001°19'0 0.0
2020-Jun-25 12:30N 51°07' E 001°19'0 0.0
2020-Jun-25 12:00N 51°07' E 001°19'0 0.0
2020-Jun-25 11:24N 51°07' E 001°19'0 0.0
2020-Jun-25 09:30N 51°07' E 001°19'0 0.0
2020-Jun-25 08:27N 51°07' E 001°19'0 0.0
2020-Jun-25 04:57N 51°07' E 001°19'3 3.0
2020-Jun-25 04:00N 51°08' E 001°23'7 7.5
2020-Jun-25 03:00N 51°02' E 001°30'9 9.0
2020-Jun-25 02:00N 50°54' E 001°24'1067777.5
2020-Jun-25 02:00N 50°54' W 001°24'105216.1 110 / 201017.527.0 20.014.917.2
2020-Jun-25 01:30N 50°48' E 001°22'14 9.1
2020-Jun-25 00:00N 50°37' E 001°10'1615.4
2020-Jun-24 23:00N 50°30' E 000°48'11 5.6 090 / 251018.410.8 18.016.317.0
2020-Jun-24 21:00N 50°27' E 000°31'2510.2
2020-Jun-24 18:30N 50°20' W 000°07'1711.0
2020-Jun-24 17:00N 50°12' W 000°30'14 9.8 070 / 301017.110.8 17.013.516.0
2020-Jun-24 15:30N 50°14' W 000°52'11 6.3
2020-Jun-24 13:49N 50°16' W 001°09'17 9.2
2020-Jun-24 12:00N 50°28' W 001°26'4336.2
2020-Jun-24 12:00N 50°24' W 001°24'918.9 060 / 171019.110.8 17.015.317.9
2020-Jun-24 11:30N 50°32' W 001°32'3 2.2
2020-Jun-24 10:00N 50°30' W 001°36'6 2.1
2020-Jun-24 07:00N 50°26' W 001°43'2 2.3
2020-Jun-24 06:00N 50°24' W 001°46'5 2.5
2020-Jun-24 04:00N 50°23' W 001°53'4 3.8
2020-Jun-24 03:00N 50°25' W 001°48'2 3.6
2020-Jun-24 02:30N 50°26' W 001°45'3 5.6
2020-Jun-24 02:00N 50°24' W 001°42'4 4.2 080 / 201020.127.0 16.014.317.7
2020-Jun-24 01:00N 50°28' W 001°40'2 1.1
2020-Jun-23 23:00N 50°30' W 001°42'2 1.6 090 / 131021.610.8 16.014.318.0
2020-Jun-23 22:00N 50°31' W 001°44'1 1.9
2020-Jun-23 21:30N 50°31' W 001°45'2 1.3
2020-Jun-23 20:00N 50°30' W 001°48'2 1.4 090 / 151021.710.8 16.012.418.0
2020-Jun-23 18:30N 50°29' W 001°51'1 1.4
2020-Jun-23 17:30N 50°28' W 001°49'12 2.9
2020-Jun-23 13:23N 50°27' W 001°31'5 2.3
2020-Jun-23 11:00N 50°30' W 001°24'1 9.3 090 / 121024.910.8 17.015.317.6
2020-Jun-23 10:53N 50°31' W 001°25'1 2.1
2020-Jun-23 10:28N 50°30' W 001°27'1 2.4
2020-Jun-23 09:59N 50°30' W 001°28'1 2.5
2020-Jun-23 09:30N 50°29' W 001°30'3 2.7
2020-Jun-23 08:30N 50°29' W 001°34'4 1.4
2020-Jun-23 05:30N 50°26' W 001°39'1 1.6
2020-Jun-23 05:00N 50°26' W 001°38'7 6.2
2020-Jun-23 03:57N 50°32' W 001°36'2 2.4
2020-Jun-23 03:00N 50°32' W 001°33'6 5.7
2020-Jun-23 02:00N 50°30' W 001°24'2 3.9 130 / 71024.927.0 15.013.217.6
2020-Jun-23 01:30N 50°31' W 001°27'1 0.6
2020-Jun-22 23:30N 50°30' W 001°26'611.3
2020-Jun-22 23:00N 50°24' W 001°24'8 5.3 130 / 81025.610.8 15.013.217.0
2020-Jun-22 21:30N 50°29' W 001°34'2 3.6
2020-Jun-22 20:59N 50°28' W 001°37'2 3.7
2020-Jun-22 20:29N 50°28' W 001°39'2 3.6
2020-Jun-22 20:00N 50°28' W 001°42'4279.9
2020-Jun-22 20:00N 50°24' W 001°42'10 2.9 260 / 81025.2 5.4 15.013.217.0
2020-Jun-22 16:30N 50°31' W 001°54'6 3.0
2020-Jun-22 14:30N 50°30' W 001°45'  
Track history (hours):
 
Tides and Currents Weather Stations Pressure Air Temp Water Temp Dewpoint Dewpoint Depression Visibility Wind Speed Wind Dir Waves Ship Positions

Majesty of the Seas (Bahamas)

Last reported at 2020-Jul-02 14:24 UTC. Time now 2020-Jul-02 15:18 UTC.
Position N 50°54' W 001°25'.

Length 268 m; draft 7.8 m.

Type: Ship. MMSI: 311734000.

Date/timePositionNaut miles runAvg speedWind from/ knotsBaromVisibWave heightAir tempDewpointWater temp
2020-Jul-02 14:24N 50°54' W 001°25'0 0.0
2020-Jul-02 11:30N 50°54' W 001°25'0 0.0
2020-Jul-02 10:57N 50°54' W 001°25'0 0.0
2020-Jul-02 10:30N 50°54' W 001°25'0 0.0
2020-Jul-02 09:27N 50°54' W 001°25'0 0.0
2020-Jul-02 09:00N 50°54' W 001°25'0 0.0
2020-Jul-02 06:30N 50°54' W 001°25'0 0.0
2020-Jul-02 04:00N 50°54' W 001°25'0 0.0
2020-Jul-02 03:30N 50°54' W 001°25'0 0.0
2020-Jul-02 02:30N 50°54' W 001°25'0 0.0
2020-Jul-02 01:30N 50°54' W 001°25'0 0.0
2020-Jul-01 23:30N 50°54' W 001°25'0 0.0
2020-Jul-01 18:27N 50°54' W 001°25'0 0.0
2020-Jul-01 16:00N 50°54' W 001°25'0 0.0
2020-Jul-01 13:30N 50°54' W 001°25'0 0.0
2020-Jul-01 05:30N 50°54' W 001°25'7 4.8
2020-Jul-01 04:01N 50°49' W 001°17'1610.5
2020-Jul-01 02:30N 50°38' W 000°59'916.9
2020-Jul-01 02:00N 50°30' W 000°54'31 4.1 250 / 181006.710.8 15.514.618.4
2020-Jun-30 18:30N 50°29' W 001°42'1 1.9
2020-Jun-30 18:00N 50°28' W 001°43'1 2.0
2020-Jun-30 17:30N 50°28' W 001°43'3 2.7
2020-Jun-30 16:29N 50°26' W 001°46'10 1.9
2020-Jun-30 11:00N 50°24' W 001°30'7 0.9 250 / 251008.9 5.4 16.014.318.5
2020-Jun-30 03:22N 50°29' W 001°37'3 2.8
2020-Jun-30 02:20N 50°28' W 001°41'514.2
2020-Jun-30 02:00N 50°24' W 001°36'6 3.9 230 / 201010.227.0 15.015.017.8
2020-Jun-30 00:24N 50°24' W 001°46'1 1.1
2020-Jun-29 23:00N 50°24' W 001°48'4 2.1 260 / 251012.310.8 15.015.018.0
2020-Jun-29 21:02N 50°28' W 001°50'3 0.6
2020-Jun-29 16:18N 50°25' W 001°53'8 1.5
2020-Jun-29 11:00N 50°30' W 001°42'65 7.2 250 / 331013.3 5.4 14.0 8.017.3
2020-Jun-29 02:00N 50°30' E 000°00'1810.0 260 / 341012.710.8 13.011.116.7
2020-Jun-29 00:09N 50°37' E 000°27'911.0
2020-Jun-28 23:20N 50°40' E 000°40'515.7
2020-Jun-28 23:00N 50°42' E 000°48'5 9.9 260 / 271012.810.8 14.012.217.0
2020-Jun-28 22:30N 50°46' E 000°52'611.7
2020-Jun-28 22:00N 50°49' E 000°60'611.2
2020-Jun-28 21:30N 50°53' E 001°07'16 5.2
2020-Jun-28 18:25N 51°07' E 001°19'0 0.0
2020-Jun-28 14:25N 51°07' E 001°19'0 0.0
2020-Jun-28 13:22N 51°07' E 001°19'0 0.0
2020-Jun-28 11:55N 51°07' E 001°19'0 0.0
2020-Jun-28 07:25N 51°07' E 001°19'0 0.0
2020-Jun-28 04:58N 51°07' E 001°19'0 0.0
2020-Jun-28 02:28N 51°07' E 001°19'0 0.0
2020-Jun-28 01:25N 51°07' E 001°19'0 0.0
2020-Jun-27 22:46N 51°07' E 001°19'0 0.0
2020-Jun-27 22:28N 51°07' E 001°19'0 0.0
2020-Jun-27 19:28N 51°07' E 001°19'0 0.0
2020-Jun-27 18:55N 51°07' E 001°19'0 0.0
2020-Jun-27 16:28N 51°07' E 001°19'0 0.0
2020-Jun-27 13:55N 51°07' E 001°19'0 0.0
2020-Jun-27 13:28N 51°07' E 001°19'0 0.0
2020-Jun-27 09:28N 51°07' E 001°19'0 0.0
2020-Jun-27 07:58N 51°07' E 001°19'0 0.0
2020-Jun-27 07:25N 51°07' E 001°19'0 0.0
2020-Jun-27 05:58N 51°07' E 001°19'0 0.0
2020-Jun-27 02:25N 51°07' E 001°19'0 0.0
2020-Jun-27 01:55N 51°07' E 001°19'0 0.0
2020-Jun-27 00:52N 51°07' E 001°19'0 0.0
2020-Jun-26 22:55N 51°07' E 001°19'0 0.0
2020-Jun-26 20:54N 51°07' E 001°19'0 0.0
2020-Jun-26 20:27N 51°07' E 001°19'0 0.0
2020-Jun-26 19:00N 51°07' E 001°19'0 0.0
2020-Jun-26 17:25N 51°07' E 001°19'0 0.0
2020-Jun-26 15:54N 51°07' E 001°19'0 0.0
2020-Jun-26 13:58N 51°07' E 001°19'0 0.0
2020-Jun-26 12:58N 51°07' E 001°19'0 0.0
2020-Jun-26 12:28N 51°07' E 001°19'0 0.0
2020-Jun-26 11:58N 51°07' E 001°19'0 0.0
2020-Jun-26 11:28N 51°07' E 001°19'0 0.0
2020-Jun-26 10:58N 51°07' E 001°19'0 0.0
2020-Jun-26 07:55N 51°07' E 001°19'0 0.0
2020-Jun-26 07:25N 51°07' E 001°19'0 0.0
2020-Jun-26 06:55N 51°07' E 001°19'0 0.0
2020-Jun-26 05:58N 51°07' E 001°19'0 0.0
2020-Jun-26 05:25N 51°07' E 001°19'0 0.0
2020-Jun-26 02:28N 51°07' E 001°19'0 0.0
2020-Jun-26 00:28N 51°07' E 001°19'0 0.0
2020-Jun-25 19:55N 51°07' E 001°19'0 0.0
2020-Jun-25 18:58N 51°07' E 001°19'0 0.0
2020-Jun-25 17:58N 51°07' E 001°19'0 0.0
2020-Jun-25 16:25N 51°07' E 001°19'0 0.0
2020-Jun-25 14:30N 51°07' E 001°19'0 0.0
2020-Jun-25 13:00N 51°07' E 001°19'0 0.0
2020-Jun-25 12:30N 51°07' E 001°19'0 0.0
2020-Jun-25 12:00N 51°07' E 001°19'0 0.0
2020-Jun-25 11:24N 51°07' E 001°19'0 0.0
2020-Jun-25 09:30N 51°07' E 001°19'0 0.0
2020-Jun-25 08:27N 51°07' E 001°19'0 0.0
2020-Jun-25 04:57N 51°07' E 001°19'3 3.0
2020-Jun-25 04:00N 51°08' E 001°23'7 7.5
2020-Jun-25 03:00N 51°02' E 001°30'9 9.0
2020-Jun-25 02:00N 50°54' E 001°24'1067777.5
2020-Jun-25 02:00N 50°54' W 001°24'105216.1 110 / 201017.527.0 20.014.917.2
2020-Jun-25 01:30N 50°48' E 001°22'14 9.1
2020-Jun-25 00:00N 50°37' E 001°10'1615.4
2020-Jun-24 23:00N 50°30' E 000°48'11 5.6 090 / 251018.410.8 18.016.317.0
2020-Jun-24 21:00N 50°27' E 000°31'2510.2
2020-Jun-24 18:30N 50°20' W 000°07'1711.0
2020-Jun-24 17:00N 50°12' W 000°30'14 9.8 070 / 301017.110.8 17.013.516.0
2020-Jun-24 15:30N 50°14' W 000°52'11 6.3
2020-Jun-24 13:49N 50°16' W 001°09'17 9.2
2020-Jun-24 12:00N 50°28' W 001°26'4336.2
2020-Jun-24 12:00N 50°24' W 001°24'918.9 060 / 171019.110.8 17.015.317.9
2020-Jun-24 11:30N 50°32' W 001°32'3 2.2
2020-Jun-24 10:00N 50°30' W 001°36'6 2.1
2020-Jun-24 07:00N 50°26' W 001°43'2 2.3
2020-Jun-24 06:00N 50°24' W 001°46'5 2.5
2020-Jun-24 04:00N 50°23' W 001°53'4 3.8
2020-Jun-24 03:00N 50°25' W 001°48'2 3.6
2020-Jun-24 02:30N 50°26' W 001°45'3 5.6
2020-Jun-24 02:00N 50°24' W 001°42'4 4.2 080 / 201020.127.0 16.014.317.7
2020-Jun-24 01:00N 50°28' W 001°40'2 1.1
2020-Jun-23 23:00N 50°30' W 001°42'2 1.6 090 / 131021.610.8 16.014.318.0
2020-Jun-23 22:00N 50°31' W 001°44'1 1.9
2020-Jun-23 21:30N 50°31' W 001°45'2 1.3
2020-Jun-23 20:00N 50°30' W 001°48'2 1.4 090 / 151021.710.8 16.012.418.0
2020-Jun-23 18:30N 50°29' W 001°51'1 1.4
2020-Jun-23 17:30N 50°28' W 001°49'12 2.9
2020-Jun-23 13:23N 50°27' W 001°31'5 2.3
2020-Jun-23 11:00N 50°30' W 001°24'1 9.3 090 / 121024.910.8 17.015.317.6
2020-Jun-23 10:53N 50°31' W 001°25'1 2.1
2020-Jun-23 10:28N 50°30' W 001°27'1 2.4
2020-Jun-23 09:59N 50°30' W 001°28'1 2.5
2020-Jun-23 09:30N 50°29' W 001°30'3 2.7
2020-Jun-23 08:30N 50°29' W 001°34'4 1.4
2020-Jun-23 05:30N 50°26' W 001°39'1 1.6
2020-Jun-23 05:00N 50°26' W 001°38'7 6.2
2020-Jun-23 03:57N 50°32' W 001°36'2 2.4
2020-Jun-23 03:00N 50°32' W 001°33'6 5.7
2020-Jun-23 02:00N 50°30' W 001°24'2 3.9 130 / 71024.927.0 15.013.217.6
2020-Jun-23 01:30N 50°31' W 001°27'1 0.6
2020-Jun-22 23:30N 50°30' W 001°26'611.3
2020-Jun-22 23:00N 50°24' W 001°24'8 5.3 130 / 81025.610.8 15.013.217.0
2020-Jun-22 21:30N 50°29' W 001°34'2 3.6
2020-Jun-22 20:59N 50°28' W 001°37'2 3.7
2020-Jun-22 20:29N 50°28' W 001°39'2 3.6
2020-Jun-22 20:00N 50°28' W 001°42'4279.9
2020-Jun-22 20:00N 50°24' W 001°42'10 2.9 260 / 81025.2 5.4 15.013.217.0
2020-Jun-22 16:30N 50°31' W 001°54'6 3.0
2020-Jun-22 14:30N 50°30' W 001°45'  

Dump ship's entire track history